Green River, Vermont
Current Conditions -  °F | °C
As of 2:35 PM on Thursday 23 Oct 2014 (Local Time) from KEEN Reporting Station
Overcast Overcast  
Wind Chill: 52°   Ceiling: 2000
Heat Index: 52°   Visibility: 7mi
Dew Point: 43°   Wind: 14mph
Humidity: 71%   Direction: 360°N
Pressure: 29.72"   Gusts: NA
Location:  42.8513°N, 72.6568°W
Report Text: KEEN 231835Z AUTO 36012KT 7SM FEW013 OVC020 11/06 A2972 RMK AO1
Loading
Personal Weather Stations






























Interactive Weather Map
Tropical Storm Tracking
New forecast layout! Learn more

10-Day Weather Forecast

Advertisements
Track Severe Weather on mobile